sensor_id;sensor_type;location;lat;lon;timestamp;P1;durP1;ratioP1;P2;durP2;ratioP2
56075;SDS011;41951;49.022;12.066;2023-10-13T00:01:58;14.23;;;7.60;;
56075;SDS011;41951;49.022;12.066;2023-10-13T00:04:26;13.57;;;8.13;;
56075;SDS011;41951;49.022;12.066;2023-10-13T00:06:52;15.10;;;7.25;;
56075;SDS011;41951;49.022;12.066;2023-10-13T00:09:19;22.15;;;8.52;;
56075;SDS011;41951;49.022;12.066;2023-10-13T00:11:50;15.23;;;8.02;;
56075;SDS011;41951;49.022;12.066;2023-10-13T00:14:17;14.48;;;7.75;;
56075;SDS011;41951;49.022;12.066;2023-10-13T00:16:44;14.90;;;7.47;;
56075;SDS011;41951;49.022;12.066;2023-10-13T00:19:28;19.30;;;7.60;;
56075;SDS011;41951;49.022;12.066;2023-10-13T00:22:02;13.02;;;8.18;;
56075;SDS011;41951;49.022;12.066;2023-10-13T00:24:34;13.85;;;7.78;;
56075;SDS011;41951;49.022;12.066;2023-10-13T00:27:07;14.48;;;8.45;;
56075;SDS011;41951;49.022;12.066;2023-10-13T00:29:38;12.00;;;7.93;;
56075;SDS011;41951;49.022;12.066;2023-10-13T00:32:04;14.63;;;7.97;;
56075;SDS011;41951;49.022;12.066;2023-10-13T00:34:29;13.57;;;8.43;;
56075;SDS011;41951;49.022;12.066;2023-10-13T00:36:57;14.30;;;8.32;;
56075;SDS011;41951;49.022;12.066;2023-10-13T00:39:46;14.00;;;8.63;;
56075;SDS011;41951;49.022;12.066;2023-10-13T00:42:12;17.80;;;8.00;;
56075;SDS011;41951;49.022;12.066;2023-10-13T00:44:55;13.52;;;7.47;;
56075;SDS011;41951;49.022;12.066;2023-10-13T00:47:21;17.23;;;8.02;;
56075;SDS011;41951;49.022;12.066;2023-10-13T00:50:07;13.77;;;7.70;;
56075;SDS011;41951;49.022;12.066;2023-10-13T00:52:36;14.40;;;7.78;;
56075;SDS011;41951;49.022;12.066;2023-10-13T00:55:06;15.07;;;8.15;;
56075;SDS011;41951;49.022;12.066;2023-10-13T00:57:34;14.32;;;8.02;;
56075;SDS011;41951;49.022;12.066;2023-10-13T01:00:01;11.88;;;7.18;;
56075;SDS011;41951;49.022;12.066;2023-10-13T01:02:37;17.77;;;7.63;;
56075;SDS011;41951;49.022;12.066;2023-10-13T01:05:03;12.40;;;7.72;;
56075;SDS011;41951;49.022;12.066;2023-10-13T01:07:34;10.82;;;6.90;;
56075;SDS011;41951;49.022;12.066;2023-10-13T01:10:02;14.27;;;8.30;;
56075;SDS011;41951;49.022;12.066;2023-10-13T01:12:29;14.40;;;8.18;;
56075;SDS011;41951;49.022;12.066;2023-10-13T01:14:56;15.13;;;8.10;;
56075;SDS011;41951;49.022;12.066;2023-10-13T01:17:22;14.02;;;7.75;;
56075;SDS011;41951;49.022;12.066;2023-10-13T01:19:48;15.52;;;7.30;;
56075;SDS011;41951;49.022;12.066;2023-10-13T01:22:14;16.10;;;8.18;;
56075;SDS011;41951;49.022;12.066;2023-10-13T01:24:40;15.50;;;7.20;;
56075;SDS011;41951;49.022;12.066;2023-10-13T01:27:06;13.60;;;8.00;;
56075;SDS011;41951;49.022;12.066;2023-10-13T01:29:44;13.05;;;7.60;;
56075;SDS011;41951;49.022;12.066;2023-10-13T01:32:18;15.52;;;8.63;;
56075;SDS011;41951;49.022;12.066;2023-10-13T01:34:44;17.77;;;8.43;;
56075;SDS011;41951;49.022;12.066;2023-10-13T01:37:11;15.95;;;7.28;;
56075;SDS011;41951;49.022;12.066;2023-10-13T01:39:37;15.02;;;8.25;;
56075;SDS011;41951;49.022;12.066;2023-10-13T01:42:02;15.10;;;8.27;;
56075;SDS011;41951;49.022;12.066;2023-10-13T01:44:28;14.20;;;7.38;;
56075;SDS011;41951;49.022;12.066;2023-10-13T01:46:59;15.57;;;8.38;;
56075;SDS011;41951;49.022;12.066;2023-10-13T01:49:31;12.48;;;7.15;;
56075;SDS011;41951;49.022;12.066;2023-10-13T01:52:17;15.20;;;8.73;;
56075;SDS011;41951;49.022;12.066;2023-10-13T01:54:43;16.63;;;7.72;;
56075;SDS011;41951;49.022;12.066;2023-10-13T01:57:12;14.15;;;7.95;;
56075;SDS011;41951;49.022;12.066;2023-10-13T01:59:40;12.38;;;7.38;;
56075;SDS011;41951;49.022;12.066;2023-10-13T02:02:12;12.70;;;7.40;;
56075;SDS011;41951;49.022;12.066;2023-10-13T02:04:41;13.63;;;8.63;;
56075;SDS011;41951;49.022;12.066;2023-10-13T02:07:22;10.43;;;7.00;;
56075;SDS011;41951;49.022;12.066;2023-10-13T02:09:55;14.68;;;8.13;;
56075;SDS011;41951;49.022;12.066;2023-10-13T02:12:23;12.95;;;7.75;;
56075;SDS011;41951;49.022;12.066;2023-10-13T02:15:02;15.55;;;7.80;;
56075;SDS011;41951;49.022;12.066;2023-10-13T02:17:30;12.95;;;7.68;;
56075;SDS011;41951;49.022;12.066;2023-10-13T02:20:05;15.77;;;8.55;;
56075;SDS011;41951;49.022;12.066;2023-10-13T02:22:33;12.95;;;7.82;;
56075;SDS011;41951;49.022;12.066;2023-10-13T02:25:01;12.27;;;7.82;;
56075;SDS011;41951;49.022;12.066;2023-10-13T02:27:27;15.77;;;7.80;;
56075;SDS011;41951;49.022;12.066;2023-10-13T02:29:52;12.38;;;7.28;;
56075;SDS011;41951;49.022;12.066;2023-10-13T02:32:23;17.13;;;7.47;;
56075;SDS011;41951;49.022;12.066;2023-10-13T02:34:49;13.50;;;7.55;;
56075;SDS011;41951;49.022;12.066;2023-10-13T02:37:15;14.70;;;7.55;;
56075;SDS011;41951;49.022;12.066;2023-10-13T02:39:44;15.23;;;8.35;;
56075;SDS011;41951;49.022;12.066;2023-10-13T02:42:09;15.63;;;8.85;;
56075;SDS011;41951;49.022;12.066;2023-10-13T02:44:48;14.13;;;8.15;;
56075;SDS011;41951;49.022;12.066;2023-10-13T02:47:17;14.00;;;8.60;;
56075;SDS011;41951;49.022;12.066;2023-10-13T02:49:44;15.57;;;8.18;;
56075;SDS011;41951;49.022;12.066;2023-10-13T02:52:12;12.90;;;8.02;;
56075;SDS011;41951;49.022;12.066;2023-10-13T02:54:38;17.83;;;7.60;;
56075;SDS011;41951;49.022;12.066;2023-10-13T02:57:07;13.35;;;8.05;;
56075;SDS011;41951;49.022;12.066;2023-10-13T02:59:33;13.05;;;8.00;;
56075;SDS011;41951;49.022;12.066;2023-10-13T03:02:05;13.43;;;7.75;;
56075;SDS011;41951;49.022;12.066;2023-10-13T03:04:43;12.88;;;7.55;;
56075;SDS011;41951;49.022;12.066;2023-10-13T03:07:10;14.25;;;7.63;;
56075;SDS011;41951;49.022;12.066;2023-10-13T03:09:40;13.38;;;7.43;;
56075;SDS011;41951;49.022;12.066;2023-10-13T03:12:14;14.60;;;7.75;;
56075;SDS011;41951;49.022;12.066;2023-10-13T03:14:40;14.32;;;7.68;;
56075;SDS011;41951;49.022;12.066;2023-10-13T03:17:06;13.98;;;7.82;;
56075;SDS011;41951;49.022;12.066;2023-10-13T03:19:41;14.02;;;7.32;;
56075;SDS011;41951;49.022;12.066;2023-10-13T03:22:16;13.43;;;7.38;;
56075;SDS011;41951;49.022;12.066;2023-10-13T03:24:43;11.68;;;7.55;;
56075;SDS011;41951;49.022;12.066;2023-10-13T03:27:16;12.25;;;7.70;;
56075;SDS011;41951;49.022;12.066;2023-10-13T03:29:46;17.65;;;7.25;;
56075;SDS011;41951;49.022;12.066;2023-10-13T03:32:14;11.40;;;7.57;;
56075;SDS011;41951;49.022;12.066;2023-10-13T03:34:44;17.60;;;8.70;;
56075;SDS011;41951;49.022;12.066;2023-10-13T03:37:25;12.45;;;7.63;;
56075;SDS011;41951;49.022;12.066;2023-10-13T03:40:01;12.18;;;7.32;;
56075;SDS011;41951;49.022;12.066;2023-10-13T03:42:31;16.75;;;7.80;;
56075;SDS011;41951;49.022;12.066;2023-10-13T03:44:57;11.77;;;7.63;;
56075;SDS011;41951;49.022;12.066;2023-10-13T03:47:23;13.45;;;8.30;;
56075;SDS011;41951;49.022;12.066;2023-10-13T03:49:57;13.02;;;7.45;;
56075;SDS011;41951;49.022;12.066;2023-10-13T03:52:41;13.02;;;7.95;;
56075;SDS011;41951;49.022;12.066;2023-10-13T03:55:07;14.65;;;7.78;;
56075;SDS011;41951;49.022;12.066;2023-10-13T03:57:33;21.58;;;8.65;;
56075;SDS011;41951;49.022;12.066;2023-10-13T03:59:59;16.98;;;8.25;;
56075;SDS011;41951;49.022;12.066;2023-10-13T04:02:33;17.92;;;9.27;;
56075;SDS011;41951;49.022;12.066;2023-10-13T04:04:58;15.20;;;8.95;;
56075;SDS011;41951;49.022;12.066;2023-10-13T04:07:32;17.83;;;9.00;;
56075;SDS011;41951;49.022;12.066;2023-10-13T04:09:58;18.52;;;9.30;;
56075;SDS011;41951;49.022;12.066;2023-10-13T04:12:55;19.00;;;10.23;;
56075;SDS011;41951;49.022;12.066;2023-10-13T04:15:42;15.68;;;8.68;;
56075;SDS011;41951;49.022;12.066;2023-10-13T04:18:27;20.75;;;9.05;;
56075;SDS011;41951;49.022;12.066;2023-10-13T04:20:59;16.58;;;9.45;;
56075;SDS011;41951;49.022;12.066;2023-10-13T04:23:43;22.83;;;9.73;;
56075;SDS011;41951;49.022;12.066;2023-10-13T04:26:28;22.02;;;10.70;;
56075;SDS011;41951;49.022;12.066;2023-10-13T04:29:07;15.63;;;9.75;;
56075;SDS011;41951;49.022;12.066;2023-10-13T04:31:55;20.40;;;9.50;;
56075;SDS011;41951;49.022;12.066;2023-10-13T04:34:25;16.67;;;9.73;;
56075;SDS011;41951;49.022;12.066;2023-10-13T04:36:53;19.83;;;9.60;;
56075;SDS011;41951;49.022;12.066;2023-10-13T04:39:36;16.05;;;10.18;;
56075;SDS011;41951;49.022;12.066;2023-10-13T04:42:03;18.73;;;10.48;;
56075;SDS011;41951;49.022;12.066;2023-10-13T04:44:55;20.08;;;10.15;;
56075;SDS011;41951;49.022;12.066;2023-10-13T04:47:25;18.77;;;9.75;;
56075;SDS011;41951;49.022;12.066;2023-10-13T04:49:54;18.42;;;10.68;;
56075;SDS011;41951;49.022;12.066;2023-10-13T04:52:25;19.50;;;12.93;;
56075;SDS011;41951;49.022;12.066;2023-10-13T04:55:10;18.63;;;10.65;;
56075;SDS011;41951;49.022;12.066;2023-10-13T04:57:54;17.70;;;10.00;;
56075;SDS011;41951;49.022;12.066;2023-10-13T05:00:35;19.40;;;10.63;;
56075;SDS011;41951;49.022;12.066;2023-10-13T05:03:20;19.70;;;10.90;;
56075;SDS011;41951;49.022;12.066;2023-10-13T05:06:15;24.08;;;11.57;;
56075;SDS011;41951;49.022;12.066;2023-10-13T05:08:59;17.75;;;10.68;;
56075;SDS011;41951;49.022;12.066;2023-10-13T05:11:43;16.10;;;10.48;;
56075;SDS011;41951;49.022;12.066;2023-10-13T05:14:27;19.60;;;10.60;;
56075;SDS011;41951;49.022;12.066;2023-10-13T05:17:11;32.70;;;15.55;;
56075;SDS011;41951;49.022;12.066;2023-10-13T05:19:56;18.98;;;12.60;;
56075;SDS011;41951;49.022;12.066;2023-10-13T05:22:41;24.05;;;12.38;;
56075;SDS011;41951;49.022;12.066;2023-10-13T05:25:25;16.15;;;10.93;;
56075;SDS011;41951;49.022;12.066;2023-10-13T05:28:09;19.33;;;10.75;;
56075;SDS011;41951;49.022;12.066;2023-10-13T05:30:53;20.20;;;11.88;;
56075;SDS011;41951;49.022;12.066;2023-10-13T05:33:37;19.58;;;11.45;;
56075;SDS011;41951;49.022;12.066;2023-10-13T05:36:21;21.92;;;11.38;;
56075;SDS011;41951;49.022;12.066;2023-10-13T05:39:05;20.08;;;12.18;;
56075;SDS011;41951;49.022;12.066;2023-10-13T05:41:49;18.98;;;11.13;;
56075;SDS011;41951;49.022;12.066;2023-10-13T05:44:33;21.48;;;11.35;;
56075;SDS011;41951;49.022;12.066;2023-10-13T05:47:02;22.00;;;11.88;;
56075;SDS011;41951;49.022;12.066;2023-10-13T05:49:54;22.50;;;11.10;;
56075;SDS011;41951;49.022;12.066;2023-10-13T05:52:30;21.55;;;10.88;;
56075;SDS011;41951;49.022;12.066;2023-10-13T05:55:15;19.08;;;11.63;;
56075;SDS011;41951;49.022;12.066;2023-10-13T05:57:59;26.25;;;12.60;;
56075;SDS011;41951;49.022;12.066;2023-10-13T06:00:42;22.42;;;12.73;;
56075;SDS011;41951;49.022;12.066;2023-10-13T06:03:26;15.98;;;10.68;;
56075;SDS011;41951;49.022;12.066;2023-10-13T06:06:11;21.35;;;11.75;;
56075;SDS011;41951;49.022;12.066;2023-10-13T06:08:55;25.88;;;13.90;;
56075;SDS011;41951;49.022;12.066;2023-10-13T06:11:39;21.60;;;11.68;;
56075;SDS011;41951;49.022;12.066;2023-10-13T06:14:25;49.72;;;29.88;;
56075;SDS011;41951;49.022;12.066;2023-10-13T06:17:09;39.75;;;22.58;;
56075;SDS011;41951;49.022;12.066;2023-10-13T06:19:53;17.67;;;11.00;;
56075;SDS011;41951;49.022;12.066;2023-10-13T06:22:37;29.73;;;18.92;;
56075;SDS011;41951;49.022;12.066;2023-10-13T06:25:21;25.35;;;13.90;;
56075;SDS011;41951;49.022;12.066;2023-10-13T06:28:05;26.80;;;12.65;;
56075;SDS011;41951;49.022;12.066;2023-10-13T06:30:56;22.08;;;10.65;;
56075;SDS011;41951;49.022;12.066;2023-10-13T06:33:23;21.92;;;11.82;;
56075;SDS011;41951;49.022;12.066;2023-10-13T06:35:54;20.20;;;10.98;;
56075;SDS011;41951;49.022;12.066;2023-10-13T06:38:23;23.30;;;10.95;;
56075;SDS011;41951;49.022;12.066;2023-10-13T06:40:49;19.73;;;10.95;;
56075;SDS011;41951;49.022;12.066;2023-10-13T06:43:18;21.40;;;11.48;;
56075;SDS011;41951;49.022;12.066;2023-10-13T06:45:47;20.42;;;11.13;;
56075;SDS011;41951;49.022;12.066;2023-10-13T06:48:25;21.75;;;12.30;;
56075;SDS011;41951;49.022;12.066;2023-10-13T06:50:51;17.55;;;10.48;;
56075;SDS011;41951;49.022;12.066;2023-10-13T06:53:17;18.80;;;10.45;;
56075;SDS011;41951;49.022;12.066;2023-10-13T06:55:44;19.92;;;11.75;;
56075;SDS011;41951;49.022;12.066;2023-10-13T06:58:12;23.38;;;11.82;;
56075;SDS011;41951;49.022;12.066;2023-10-13T07:00:39;16.33;;;10.60;;
56075;SDS011;41951;49.022;12.066;2023-10-13T07:03:06;25.13;;;11.90;;
56075;SDS011;41951;49.022;12.066;2023-10-13T07:05:35;15.45;;;10.27;;
56075;SDS011;41951;49.022;12.066;2023-10-13T07:08:03;16.00;;;10.50;;
56075;SDS011;41951;49.022;12.066;2023-10-13T07:10:32;21.55;;;15.23;;
56075;SDS011;41951;49.022;12.066;2023-10-13T07:13:09;19.85;;;11.77;;
56075;SDS011;41951;49.022;12.066;2023-10-13T07:15:38;20.38;;;11.38;;
56075;SDS011;41951;49.022;12.066;2023-10-13T07:18:09;43.53;;;26.25;;
56075;SDS011;41951;49.022;12.066;2023-10-13T07:20:40;25.45;;;16.02;;
56075;SDS011;41951;49.022;12.066;2023-10-13T07:23:12;25.92;;;16.02;;
56075;SDS011;41951;49.022;12.066;2023-10-13T07:25:51;21.08;;;11.80;;
56075;SDS011;41951;49.022;12.066;2023-10-13T07:28:19;17.00;;;11.15;;
56075;SDS011;41951;49.022;12.066;2023-10-13T07:30:45;16.50;;;10.63;;
56075;SDS011;41951;49.022;12.066;2023-10-13T07:33:21;20.42;;;11.02;;
56075;SDS011;41951;49.022;12.066;2023-10-13T07:35:47;18.45;;;10.13;;
56075;SDS011;41951;49.022;12.066;2023-10-13T07:38:40;17.40;;;10.00;;
56075;SDS011;41951;49.022;12.066;2023-10-13T07:41:13;19.90;;;11.73;;
56075;SDS011;41951;49.022;12.066;2023-10-13T07:43:41;16.70;;;10.07;;
56075;SDS011;41951;49.022;12.066;2023-10-13T07:46:08;18.83;;;12.93;;
56075;SDS011;41951;49.022;12.066;2023-10-13T07:48:38;27.43;;;15.27;;
56075;SDS011;41951;49.022;12.066;2023-10-13T07:51:06;16.15;;;10.10;;
56075;SDS011;41951;49.022;12.066;2023-10-13T07:53:52;17.85;;;10.00;;
56075;SDS011;41951;49.022;12.066;2023-10-13T07:56:18;14.07;;;9.50;;
56075;SDS011;41951;49.022;12.066;2023-10-13T07:58:44;16.98;;;10.02;;
56075;SDS011;41951;49.022;12.066;2023-10-13T08:01:18;20.05;;;11.38;;
56075;SDS011;41951;49.022;12.066;2023-10-13T08:03:44;19.45;;;11.40;;
56075;SDS011;41951;49.022;12.066;2023-10-13T08:06:11;19.65;;;10.63;;
56075;SDS011;41951;49.022;12.066;2023-10-13T08:08:38;17.15;;;10.40;;
56075;SDS011;41951;49.022;12.066;2023-10-13T08:11:05;18.13;;;9.57;;
56075;SDS011;41951;49.022;12.066;2023-10-13T08:13:46;20.38;;;9.88;;
56075;SDS011;41951;49.022;12.066;2023-10-13T08:16:12;14.65;;;8.38;;
56075;SDS011;41951;49.022;12.066;2023-10-13T08:18:48;16.08;;;9.75;;
56075;SDS011;41951;49.022;12.066;2023-10-13T08:21:14;12.02;;;7.78;;
56075;SDS011;41951;49.022;12.066;2023-10-13T08:23:47;13.88;;;8.60;;
56075;SDS011;41951;49.022;12.066;2023-10-13T08:26:20;14.63;;;8.20;;
56075;SDS011;41951;49.022;12.066;2023-10-13T08:29:02;14.88;;;8.13;;
56075;SDS011;41951;49.022;12.066;2023-10-13T08:31:52;13.80;;;7.65;;
56075;SDS011;41951;49.022;12.066;2023-10-13T08:34:36;13.48;;;7.38;;
56075;SDS011;41951;49.022;12.066;2023-10-13T08:37:27;16.83;;;8.43;;
56075;SDS011;41951;49.022;12.066;2023-10-13T08:39:58;14.15;;;7.78;;
56075;SDS011;41951;49.022;12.066;2023-10-13T08:42:38;20.23;;;7.70;;
56075;SDS011;41951;49.022;12.066;2023-10-13T08:45:11;12.55;;;7.45;;
56075;SDS011;41951;49.022;12.066;2023-10-13T08:47:53;16.48;;;9.80;;
56075;SDS011;41951;49.022;12.066;2023-10-13T08:50:33;17.08;;;8.23;;
56075;SDS011;41951;49.022;12.066;2023-10-13T08:53:35;14.82;;;7.30;;
56075;SDS011;41951;49.022;12.066;2023-10-13T08:56:10;12.27;;;7.45;;
56075;SDS011;41951;49.022;12.066;2023-10-13T09:01:24;22.10;;;8.80;;
56075;SDS011;41951;49.022;12.066;2023-10-13T09:04:08;17.50;;;10.43;;
56075;SDS011;41951;49.022;12.066;2023-10-13T09:06:48;13.55;;;6.80;;
56075;SDS011;41951;49.022;12.066;2023-10-13T09:09:24;9.70;;;5.90;;
56075;SDS011;41951;49.022;12.066;2023-10-13T09:12:00;12.23;;;6.43;;
56075;SDS011;41951;49.022;12.066;2023-10-13T09:14:44;15.02;;;7.05;;
56075;SDS011;41951;49.022;12.066;2023-10-13T09:17:25;12.88;;;6.55;;
56075;SDS011;41951;49.022;12.066;2023-10-13T09:19:58;10.27;;;5.93;;
56075;SDS011;41951;49.022;12.066;2023-10-13T09:22:47;11.00;;;6.03;;
56075;SDS011;41951;49.022;12.066;2023-10-13T09:25:24;13.48;;;6.28;;
56075;SDS011;41951;49.022;12.066;2023-10-13T09:27:58;13.65;;;6.68;;
56075;SDS011;41951;49.022;12.066;2023-10-13T09:30:25;14.20;;;6.60;;
56075;SDS011;41951;49.022;12.066;2023-10-13T09:35:41;13.85;;;5.60;;
56075;SDS011;41951;49.022;12.066;2023-10-13T09:38:14;13.07;;;5.63;;
56075;SDS011;41951;49.022;12.066;2023-10-13T09:40:40;11.02;;;6.03;;
56075;SDS011;41951;49.022;12.066;2023-10-13T09:43:14;15.02;;;5.55;;
56075;SDS011;41951;49.022;12.066;2023-10-13T09:45:42;13.02;;;5.22;;
56075;SDS011;41951;49.022;12.066;2023-10-13T09:51:02;9.85;;;4.72;;
56075;SDS011;41951;49.022;12.066;2023-10-13T09:53:34;11.82;;;5.28;;
56075;SDS011;41951;49.022;12.066;2023-10-13T09:56:11;10.98;;;4.47;;
56075;SDS011;41951;49.022;12.066;2023-10-13T09:59:26;11.35;;;5.22;;
56075;SDS011;41951;49.022;12.066;2023-10-13T10:01:42;9.77;;;4.32;;
56075;SDS011;41951;49.022;12.066;2023-10-13T10:04:23;7.50;;;3.70;;
56075;SDS011;41951;49.022;12.066;2023-10-13T10:06:55;8.52;;;3.22;;
56075;SDS011;41951;49.022;12.066;2023-10-13T10:09:31;9.48;;;3.70;;
56075;SDS011;41951;49.022;12.066;2023-10-13T10:17:21;8.05;;;3.55;;
56075;SDS011;41951;49.022;12.066;2023-10-13T10:19:48;7.18;;;3.00;;
56075;SDS011;41951;49.022;12.066;2023-10-13T10:22:27;9.02;;;4.40;;
56075;SDS011;41951;49.022;12.066;2023-10-13T10:25:02;8.77;;;3.63;;
56075;SDS011;41951;49.022;12.066;2023-10-13T10:27:31;9.52;;;3.50;;
56075;SDS011;41951;49.022;12.066;2023-10-13T10:29:58;9.60;;;3.63;;
56075;SDS011;41951;49.022;12.066;2023-10-13T10:32:33;9.73;;;3.72;;
56075;SDS011;41951;49.022;12.066;2023-10-13T10:35:04;11.75;;;3.70;;
56075;SDS011;41951;49.022;12.066;2023-10-13T10:37:39;9.05;;;3.40;;
56075;SDS011;41951;49.022;12.066;2023-10-13T10:40:12;10.77;;;4.15;;
56075;SDS011;41951;49.022;12.066;2023-10-13T10:43:00;5.60;;;2.88;;
56075;SDS011;41951;49.022;12.066;2023-10-13T10:45:26;5.97;;;2.92;;
56075;SDS011;41951;49.022;12.066;2023-10-13T10:47:59;8.80;;;3.75;;
56075;SDS011;41951;49.022;12.066;2023-10-13T10:50:26;9.68;;;3.15;;
56075;SDS011;41951;49.022;12.066;2023-10-13T10:53:04;6.80;;;3.15;;
56075;SDS011;41951;49.022;12.066;2023-10-13T10:55:33;7.90;;;2.90;;
56075;SDS011;41951;49.022;12.066;2023-10-13T10:58:02;9.52;;;3.35;;
56075;SDS011;41951;49.022;12.066;2023-10-13T11:00:31;14.52;;;3.13;;
56075;SDS011;41951;49.022;12.066;2023-10-13T11:03:11;6.53;;;3.17;;
56075;SDS011;41951;49.022;12.066;2023-10-13T11:05:44;13.25;;;6.50;;
56075;SDS011;41951;49.022;12.066;2023-10-13T11:08:20;9.35;;;3.67;;
56075;SDS011;41951;49.022;12.066;2023-10-13T11:11:00;6.95;;;3.55;;
56075;SDS011;41951;49.022;12.066;2023-10-13T11:13:26;7.38;;;2.95;;
56075;SDS011;41951;49.022;12.066;2023-10-13T11:15:56;10.32;;;3.60;;
56075;SDS011;41951;49.022;12.066;2023-10-13T11:18:31;8.43;;;2.83;;
56075;SDS011;41951;49.022;12.066;2023-10-13T11:21:05;9.52;;;3.63;;
56075;SDS011;41951;49.022;12.066;2023-10-13T11:23:32;8.30;;;3.60;;
56075;SDS011;41951;49.022;12.066;2023-10-13T11:26:01;9.02;;;2.90;;
56075;SDS011;41951;49.022;12.066;2023-10-13T11:28:28;7.72;;;3.22;;
56075;SDS011;41951;49.022;12.066;2023-10-13T11:30:55;8.60;;;3.10;;
56075;SDS011;41951;49.022;12.066;2023-10-13T11:33:25;8.07;;;3.15;;
56075;SDS011;41951;49.022;12.066;2023-10-13T11:35:55;7.13;;;2.63;;
56075;SDS011;41951;49.022;12.066;2023-10-13T11:38:25;7.07;;;3.15;;
56075;SDS011;41951;49.022;12.066;2023-10-13T11:40:54;9.80;;;3.10;;
56075;SDS011;41951;49.022;12.066;2023-10-13T11:46:14;7.97;;;3.17;;
56075;SDS011;41951;49.022;12.066;2023-10-13T11:48:42;11.13;;;2.90;;
56075;SDS011;41951;49.022;12.066;2023-10-13T11:51:10;10.27;;;2.83;;
56075;SDS011;41951;49.022;12.066;2023-10-13T11:53:43;10.90;;;3.30;;
56075;SDS011;41951;49.022;12.066;2023-10-13T11:56:10;7.90;;;3.25;;
56075;SDS011;41951;49.022;12.066;2023-10-13T11:58:36;13.45;;;5.32;;
56075;SDS011;41951;49.022;12.066;2023-10-13T12:01:02;10.30;;;2.97;;
56075;SDS011;41951;49.022;12.066;2023-10-13T12:03:40;12.90;;;3.40;;
56075;SDS011;41951;49.022;12.066;2023-10-13T12:06:25;11.23;;;2.85;;
56075;SDS011;41951;49.022;12.066;2023-10-13T12:09:03;10.02;;;2.75;;
56075;SDS011;41951;49.022;12.066;2023-10-13T12:11:45;7.97;;;2.55;;
56075;SDS011;41951;49.022;12.066;2023-10-13T12:14:12;9.43;;;2.42;;
56075;SDS011;41951;49.022;12.066;2023-10-13T12:16:46;6.82;;;3.00;;
56075;SDS011;41951;49.022;12.066;2023-10-13T12:21:43;8.40;;;2.50;;
56075;SDS011;41951;49.022;12.066;2023-10-13T12:24:09;10.52;;;2.92;;
56075;SDS011;41951;49.022;12.066;2023-10-13T12:26:47;10.32;;;3.10;;
56075;SDS011;41951;49.022;12.066;2023-10-13T12:29:13;6.43;;;2.70;;
56075;SDS011;41951;49.022;12.066;2023-10-13T12:31:47;7.55;;;2.80;;
56075;SDS011;41951;49.022;12.066;2023-10-13T12:34:30;10.38;;;3.00;;
56075;SDS011;41951;49.022;12.066;2023-10-13T12:37:11;9.32;;;2.72;;
56075;SDS011;41951;49.022;12.066;2023-10-13T12:39:57;10.38;;;2.50;;
56075;SDS011;41951;49.022;12.066;2023-10-13T12:42:41;8.20;;;2.70;;
56075;SDS011;41951;49.022;12.066;2023-10-13T12:45:25;10.95;;;3.53;;
56075;SDS011;41951;49.022;12.066;2023-10-13T12:48:09;7.50;;;2.83;;
56075;SDS011;41951;49.022;12.066;2023-10-13T12:50:53;12.75;;;2.80;;
56075;SDS011;41951;49.022;12.066;2023-10-13T12:53:32;7.40;;;2.73;;
56075;SDS011;41951;49.022;12.066;2023-10-13T12:55:58;9.75;;;2.70;;
56075;SDS011;41951;49.022;12.066;2023-10-13T12:58:24;9.35;;;2.70;;
56075;SDS011;41951;49.022;12.066;2023-10-13T13:00:52;15.02;;;5.70;;
56075;SDS011;41951;49.022;12.066;2023-10-13T13:03:26;8.88;;;3.58;;
56075;SDS011;41951;49.022;12.066;2023-10-13T13:05:54;9.55;;;3.53;;
56075;SDS011;41951;49.022;12.066;2023-10-13T13:08:21;7.80;;;2.92;;
56075;SDS011;41951;49.022;12.066;2023-10-13T13:10:48;9.18;;;2.78;;
56075;SDS011;41951;49.022;12.066;2023-10-13T13:13:13;9.77;;;2.80;;
56075;SDS011;41951;49.022;12.066;2023-10-13T13:15:41;21.10;;;6.10;;
56075;SDS011;41951;49.022;12.066;2023-10-13T13:18:07;9.30;;;3.00;;
56075;SDS011;41951;49.022;12.066;2023-10-13T13:20:39;8.82;;;2.75;;
56075;SDS011;41951;49.022;12.066;2023-10-13T13:23:08;9.43;;;2.70;;
56075;SDS011;41951;49.022;12.066;2023-10-13T13:25:37;10.82;;;3.15;;
56075;SDS011;41951;49.022;12.066;2023-10-13T13:28:07;8.45;;;2.95;;
56075;SDS011;41951;49.022;12.066;2023-10-13T13:30:35;8.18;;;3.53;;
56075;SDS011;41951;49.022;12.066;2023-10-13T13:33:02;8.93;;;2.72;;
56075;SDS011;41951;49.022;12.066;2023-10-13T13:35:35;8.70;;;2.63;;
56075;SDS011;41951;49.022;12.066;2023-10-13T13:38:02;8.57;;;4.78;;
56075;SDS011;41951;49.022;12.066;2023-10-13T13:40:46;8.82;;;3.10;;
56075;SDS011;41951;49.022;12.066;2023-10-13T13:43:14;7.32;;;2.47;;
56075;SDS011;41951;49.022;12.066;2023-10-13T13:45:56;12.32;;;3.15;;
56075;SDS011;41951;49.022;12.066;2023-10-13T13:48:28;7.63;;;2.72;;
56075;SDS011;41951;49.022;12.066;2023-10-13T13:50:54;10.70;;;2.80;;
56075;SDS011;41951;49.022;12.066;2023-10-13T13:53:29;11.38;;;2.80;;
56075;SDS011;41951;49.022;12.066;2023-10-13T13:58:28;10.57;;;3.08;;
56075;SDS011;41951;49.022;12.066;2023-10-13T14:00:59;14.55;;;2.88;;
56075;SDS011;41951;49.022;12.066;2023-10-13T14:03:25;9.93;;;3.20;;
56075;SDS011;41951;49.022;12.066;2023-10-13T14:05:58;13.73;;;2.92;;
56075;SDS011;41951;49.022;12.066;2023-10-13T14:08:24;9.82;;;2.53;;
56075;SDS011;41951;49.022;12.066;2023-10-13T14:10:51;7.15;;;2.85;;
56075;SDS011;41951;49.022;12.066;2023-10-13T14:13:38;10.93;;;2.63;;
56075;SDS011;41951;49.022;12.066;2023-10-13T14:16:20;9.77;;;2.95;;
56075;SDS011;41951;49.022;12.066;2023-10-13T14:18:48;7.47;;;2.50;;
56075;SDS011;41951;49.022;12.066;2023-10-13T14:21:16;17.55;;;6.45;;
56075;SDS011;41951;49.022;12.066;2023-10-13T14:23:45;9.32;;;2.80;;
56075;SDS011;41951;49.022;12.066;2023-10-13T14:26:13;12.98;;;3.88;;
56075;SDS011;41951;49.022;12.066;2023-10-13T14:28:39;11.85;;;2.78;;
56075;SDS011;41951;49.022;12.066;2023-10-13T14:31:17;14.20;;;3.03;;
56075;SDS011;41951;49.022;12.066;2023-10-13T14:33:44;10.70;;;2.65;;
56075;SDS011;41951;49.022;12.066;2023-10-13T14:36:11;9.20;;;3.15;;
56075;SDS011;41951;49.022;12.066;2023-10-13T14:38:37;13.60;;;3.00;;
56075;SDS011;41951;49.022;12.066;2023-10-13T14:41:02;13.85;;;2.95;;
56075;SDS011;41951;49.022;12.066;2023-10-13T14:43:28;8.02;;;2.42;;
56075;SDS011;41951;49.022;12.066;2023-10-13T14:45:53;12.02;;;2.70;;
56075;SDS011;41951;49.022;12.066;2023-10-13T14:48:20;8.80;;;2.40;;
56075;SDS011;41951;49.022;12.066;2023-10-13T14:50:47;10.63;;;2.50;;
56075;SDS011;41951;49.022;12.066;2023-10-13T14:53:13;9.88;;;2.85;;
56075;SDS011;41951;49.022;12.066;2023-10-13T14:55:42;8.55;;;2.75;;
56075;SDS011;41951;49.022;12.066;2023-10-13T14:58:08;9.70;;;2.80;;
56075;SDS011;41951;49.022;12.066;2023-10-13T15:00:33;11.13;;;2.80;;
56075;SDS011;41951;49.022;12.066;2023-10-13T15:02:59;11.23;;;2.80;;
56075;SDS011;41951;49.022;12.066;2023-10-13T15:05:31;10.05;;;3.42;;
56075;SDS011;41951;49.022;12.066;2023-10-13T15:07:58;9.93;;;2.60;;
56075;SDS011;41951;49.022;12.066;2023-10-13T15:10:25;12.70;;;4.13;;
56075;SDS011;41951;49.022;12.066;2023-10-13T15:12:50;35.00;;;22.83;;
56075;SDS011;41951;49.022;12.066;2023-10-13T15:15:16;55.22;;;33.15;;
56075;SDS011;41951;49.022;12.066;2023-10-13T15:17:44;25.17;;;12.60;;